createdAt,value
2022-07-26T00:01:34.765Z,73466.95
2022-07-26T00:04:05.904Z,73478.14
2022-07-26T00:06:35.703Z,73489.73
2022-07-26T00:09:06.439Z,73497.33
2022-07-26T00:11:36.668Z,73504.13
2022-07-26T00:14:08.791Z,73504.52
2022-07-26T00:16:38.871Z,73506.13
2022-07-26T00:19:09.106Z,73496.92
2022-07-26T00:21:40.732Z,73480.14
2022-07-26T00:24:11.801Z,73468.15
2022-07-26T00:26:42.607Z,73460.55
2022-07-26T00:29:12.704Z,73462.55
2022-07-26T00:31:42.696Z,73484.14
2022-07-26T00:34:12.708Z,73503.73
2022-07-26T00:36:44.426Z,73520.11
2022-07-26T00:39:15.962Z,73532.50
2022-07-26T00:41:45.788Z,73535.30
2022-07-26T00:44:16.788Z,73537.30
2022-07-26T00:46:47.029Z,73537.30
2022-07-26T00:49:16.901Z,73540.89
2022-07-26T00:51:46.808Z,73544.09
2022-07-26T00:54:18.519Z,73544.89
2022-07-26T00:56:52.117Z,73537.70
2022-07-26T00:59:31.891Z,73527.31
2022-07-26T01:02:03.115Z,73519.31
2022-07-26T01:04:34.129Z,73510.52
2022-07-26T01:07:14.782Z,73488.92
2022-07-26T01:09:46.768Z,73483.73
2022-07-26T01:12:18.968Z,73481.73
2022-07-26T01:14:48.573Z,73474.14
2022-07-26T01:17:18.599Z,73479.34
2022-07-26T01:19:49.628Z,73516.52
2022-07-26T01:22:19.814Z,73540.50
2022-07-26T01:24:49.710Z,73572.08
2022-07-26T01:27:19.481Z,73606.05
2022-07-26T01:29:52.428Z,73630.04
2022-07-26T01:32:24.820Z,73654.02
2022-07-26T01:34:54.890Z,73674.80
2022-07-26T01:37:24.423Z,73686.80
2022-07-26T01:39:54.117Z,73697.19
2022-07-26T01:42:23.646Z,73703.98
2022-07-26T01:44:53.863Z,73715.58
2022-07-26T01:47:23.348Z,73724.77
2022-07-26T01:49:54.658Z,73732.37
2022-07-26T01:52:24.644Z,73733.57
2022-07-26T01:54:55.019Z,73737.17
2022-07-26T01:57:24.585Z,73743.96
2022-07-26T01:59:56.241Z,73751.55
2022-07-26T02:02:26.878Z,73760.35
2022-07-26T02:04:59.671Z,73764.35
2022-07-26T02:07:33.981Z,73765.95
2022-07-26T02:10:05.019Z,73763.55
2022-07-26T02:12:40.377Z,73753.55
2022-07-26T02:15:11.836Z,73748.75
2022-07-26T02:17:43.266Z,73747.16
2022-07-26T02:20:17.647Z,73744.36
2022-07-26T02:22:47.969Z,73755.55
2022-07-26T02:25:17.577Z,73770.74
2022-07-26T02:27:48.839Z,73783.14
2022-07-26T02:30:18.947Z,73786.34
2022-07-26T02:32:50.098Z,73784.73
2022-07-26T02:35:19.943Z,73784.34
2022-07-26T02:37:49.341Z,73801.92
2022-07-26T02:40:19.828Z,73823.91
2022-07-26T02:42:49.838Z,73839.11
2022-07-26T02:45:19.818Z,73844.30
2022-07-26T02:47:52.431Z,73842.30
2022-07-26T02:50:25.754Z,73839.11
2022-07-26T02:52:56.519Z,73839.91
2022-07-26T02:55:28.730Z,73853.09
2022-07-26T02:57:58.761Z,73873.08
2022-07-26T03:00:28.441Z,73882.27
2022-07-26T03:02:59.826Z,73883.88
2022-07-26T03:05:29.926Z,73883.48
2022-07-26T03:08:00.361Z,73883.88
2022-07-26T03:10:30.865Z,73883.48
2022-07-26T03:13:00.756Z,73881.48
2022-07-26T03:15:32.086Z,73877.48
2022-07-26T03:18:02.926Z,73875.08
2022-07-26T03:20:33.112Z,73870.69
2022-07-26T03:23:03.866Z,73875.08
2022-07-26T03:25:33.932Z,73881.48
2022-07-26T03:28:07.776Z,73885.48
2022-07-26T03:30:37.869Z,73893.08
2022-07-26T03:33:07.721Z,73896.67
2022-07-26T03:35:38.024Z,73896.27
2022-07-26T03:38:07.564Z,73901.06
2022-07-26T03:40:37.629Z,73907.06
2022-07-26T03:43:07.796Z,73909.86
2022-07-26T03:45:37.853Z,73916.26
2022-07-26T03:48:07.995Z,73917.46
2022-07-26T03:50:39.785Z,73920.26
2022-07-26T03:53:10.929Z,73919.05
2022-07-26T03:55:59.747Z,73911.86
2022-07-26T03:58:30.944Z,73893.07
2022-07-26T04:01:00.897Z,73879.48
2022-07-26T04:03:31.764Z,73849.49
2022-07-26T04:06:02.982Z,73797.13
2022-07-26T04:08:34.810Z,73733.56
2022-07-26T04:11:04.976Z,73669.20
2022-07-26T04:13:36.201Z,73592.86
2022-07-26T04:16:06.028Z,73511.31
2022-07-26T04:18:36.832Z,73426.98
2022-07-26T04:21:07.330Z,73315.46
2022-07-26T04:23:37.804Z,73231.52
2022-07-26T04:26:08.967Z,73183.96
2022-07-26T04:28:38.616Z,73147.59
2022-07-26T04:31:09.182Z,73112.81
2022-07-26T04:33:38.927Z,73057.66
2022-07-26T04:36:09.194Z,72980.92
2022-07-26T04:38:40.055Z,72909.38
2022-07-26T04:41:10.462Z,72884.21
2022-07-26T04:43:41.050Z,72845.84
2022-07-26T04:46:12.612Z,72766.71
2022-07-26T04:48:43.050Z,72690.38
2022-07-26T04:51:12.865Z,72615.25
2022-07-26T04:53:43.859Z,72543.71
2022-07-26T04:56:15.593Z,72484.97
2022-07-26T04:58:47.032Z,72424.23
2022-07-26T05:01:16.954Z,72364.69
2022-07-26T05:03:47.185Z,72304.35
2022-07-26T05:06:18.459Z,72264.79
2022-07-26T05:08:49.315Z,72222.43
2022-07-26T05:11:19.040Z,72202.05
2022-07-26T05:13:50.025Z,72166.89
2022-07-26T05:16:21.157Z,72189.27
2022-07-26T05:18:52.958Z,72197.65
2022-07-26T05:21:22.814Z,72165.29
2022-07-26T05:23:53.973Z,72174.88
2022-07-26T05:26:23.997Z,72144.11
2022-07-26T05:28:54.668Z,72119.73
2022-07-26T05:31:26.396Z,72105.75
2022-07-26T05:33:59.523Z,72059.40
2022-07-26T05:36:31.122Z,72011.84
2022-07-26T05:39:02.354Z,71982.69
2022-07-26T05:41:32.254Z,71974.69
2022-07-26T05:44:03.972Z,71943.52
2022-07-26T05:46:33.909Z,71924.75
2022-07-26T05:49:05.647Z,71902.38
2022-07-26T05:51:36.875Z,71883.59
2022-07-26T05:54:07.066Z,71847.63
2022-07-26T05:56:38.209Z,71800.48
2022-07-26T05:59:08.281Z,71745.73
2022-07-26T06:01:38.794Z,71685.80
2022-07-26T06:04:10.202Z,71636.67
2022-07-26T06:06:40.494Z,71680.63
2022-07-26T06:09:10.792Z,71714.18
2022-07-26T06:11:41.047Z,71681.02
2022-07-26T06:14:10.926Z,71654.25
2022-07-26T06:16:40.494Z,71590.73
2022-07-26T06:19:12.587Z,71563.56
2022-07-26T06:21:43.270Z,71511.63
2022-07-26T06:24:13.352Z,71465.27
2022-07-26T06:26:43.492Z,71424.13
2022-07-26T06:29:15.011Z,71398.56
2022-07-26T06:31:44.971Z,71373.80
2022-07-26T06:34:15.241Z,71351.02
2022-07-26T06:36:47.749Z,71323.85
2022-07-26T06:39:17.924Z,71283.90
2022-07-26T06:41:49.825Z,71263.13
2022-07-26T06:44:23.334Z,71292.29
2022-07-26T06:46:53.926Z,71258.33
2022-07-26T06:49:26.066Z,71226.38
2022-07-26T06:51:58.956Z,71209.99
2022-07-26T06:54:28.891Z,71186.42
2022-07-26T06:56:59.005Z,71190.83
2022-07-26T06:59:28.952Z,71184.42
2022-07-26T07:02:00.666Z,71200.41
2022-07-26T07:04:34.240Z,71196.41
2022-07-26T07:07:06.641Z,71174.84
2022-07-26T07:09:39.027Z,71191.61
2022-07-26T07:12:10.827Z,71173.23
2022-07-26T07:14:40.821Z,71170.44
2022-07-26T07:17:17.159Z,71170.84
2022-07-26T07:19:57.992Z,71196.41
2022-07-26T07:22:27.913Z,71183.63
2022-07-26T07:24:59.665Z,71208.80
2022-07-26T07:27:33.270Z,71152.08
2022-07-26T07:30:17.578Z,71092.54
2022-07-26T07:32:50.015Z,71034.22
2022-07-26T07:35:22.878Z,71038.22
2022-07-26T07:37:54.252Z,71128.10
2022-07-26T07:40:24.091Z,71054.20
2022-07-26T07:42:55.154Z,71013.85
2022-07-26T07:45:27.948Z,70961.52
2022-07-26T07:47:57.962Z,70909.59
2022-07-26T07:50:28.589Z,70858.86
2022-07-26T07:52:59.858Z,70852.08
2022-07-26T07:55:41.511Z,70834.89
2022-07-26T07:58:18.834Z,70838.48
2022-07-26T08:00:50.316Z,70835.69
2022-07-26T08:03:21.480Z,70800.94
2022-07-26T08:05:53.122Z,70871.24
2022-07-26T08:08:23.939Z,70838.09
2022-07-26T08:10:55.864Z,70825.70
2022-07-26T08:13:27.121Z,70823.30
2022-07-26T08:15:57.438Z,70801.34
2022-07-26T08:18:30.229Z,70907.19
2022-07-26T08:21:04.175Z,70833.29
2022-07-26T08:23:36.012Z,70802.94
2022-07-26T08:26:07.180Z,70798.94
2022-07-26T08:28:47.271Z,70785.76
2022-07-26T08:31:25.281Z,70767.39
2022-07-26T08:33:58.613Z,70729.03
2022-07-26T08:36:35.089Z,70679.90
2022-07-26T08:39:06.409Z,70634.37
2022-07-26T08:41:40.931Z,70634.77
2022-07-26T08:44:14.121Z,70625.18
2022-07-26T08:46:44.403Z,70612.80
2022-07-26T08:49:16.633Z,70639.56
2022-07-26T08:51:46.917Z,70649.55
2022-07-26T08:54:18.451Z,70655.14
2022-07-26T08:56:53.683Z,70608.41
2022-07-26T08:59:24.370Z,70583.24
2022-07-26T09:02:07.320Z,70587.23
2022-07-26T09:04:44.763Z,70580.84
2022-07-26T09:07:19.629Z,70551.69
2022-07-26T09:10:11.065Z,70525.73
2022-07-26T09:12:47.820Z,70543.30
2022-07-26T09:15:28.754Z,70532.52
2022-07-26T09:18:00.229Z,70514.55
2022-07-26T09:20:34.192Z,70508.95
2022-07-26T09:23:14.769Z,70530.92
2022-07-26T09:25:47.426Z,70577.65
2022-07-26T09:28:27.938Z,70537.71
2022-07-26T09:31:00.420Z,70528.52
2022-07-26T09:33:48.623Z,70556.48
2022-07-26T09:36:19.590Z,70627.59
2022-07-26T09:38:51.648Z,70630.38
2022-07-26T09:41:32.115Z,70614.00
2022-07-26T09:44:06.709Z,70628.38
2022-07-26T09:47:29.057Z,70614.40
2022-07-26T09:50:20.882Z,70679.91
2022-07-26T09:53:08.370Z,70677.11
2022-07-26T09:55:46.149Z,70689.50
2022-07-26T09:58:18.118Z,70689.49
2022-07-26T10:00:50.202Z,70659.13
2022-07-26T10:03:20.504Z,70632.38
2022-07-26T10:05:52.744Z,70658.34
2022-07-26T10:08:23.414Z,70667.13
2022-07-26T10:11:09.981Z,70678.31
2022-07-26T10:13:40.822Z,70660.33
2022-07-26T10:16:38.023Z,70696.68
2022-07-26T10:19:09.947Z,70693.48
2022-07-26T10:21:43.609Z,70759.00
2022-07-26T10:24:42.861Z,70851.27
2022-07-26T10:27:40.202Z,70790.16
2022-07-26T10:30:20.295Z,70714.66
2022-07-26T10:32:53.355Z,70653.94
2022-07-26T10:35:42.155Z,70635.17
2022-07-26T10:38:15.022Z,70654.73
2022-07-26T10:41:09.428Z,70644.36
2022-07-26T10:43:41.134Z,70639.55
2022-07-26T10:46:21.443Z,70630.77
2022-07-26T10:49:06.945Z,70604.81
2022-07-26T10:51:40.070Z,70587.64
2022-07-26T10:54:14.283Z,70586.84
2022-07-26T10:56:45.035Z,70582.45
2022-07-26T10:59:27.958Z,70569.27
2022-07-26T11:02:19.098Z,70572.86
2022-07-26T11:04:50.830Z,70581.25
2022-07-26T11:07:22.339Z,70602.81
2022-07-26T11:10:00.192Z,70568.87
2022-07-26T11:12:31.267Z,70523.73
2022-07-26T11:15:17.126Z,70540.91
2022-07-26T11:17:47.395Z,70688.70
2022-07-26T11:20:29.879Z,70760.19
2022-07-26T11:23:01.563Z,70762.59
2022-07-26T11:25:32.666Z,70780.97
2022-07-26T11:28:07.129Z,70842.88
2022-07-26T11:31:00.771Z,70756.20
2022-07-26T11:33:41.967Z,70676.71
2022-07-26T11:36:13.622Z,70639.16
2022-07-26T11:38:56.099Z,70598.02
2022-07-26T11:41:35.185Z,70558.48
2022-07-26T11:44:06.152Z,70542.50
2022-07-26T11:46:50.145Z,70541.30
2022-07-26T11:50:00.122Z,70539.31
2022-07-26T11:52:24.914Z,70562.88
2022-07-26T11:54:59.482Z,70548.49
2022-07-26T11:57:33.380Z,70522.13
2022-07-26T12:00:07.395Z,70529.31
2022-07-26T12:02:43.460Z,70537.31
2022-07-26T12:05:22.896Z,70512.14
2022-07-26T12:07:58.136Z,70504.16
2022-07-26T12:10:32.961Z,70491.77
2022-07-26T12:13:15.114Z,70480.59
2022-07-26T12:15:53.682Z,70475.00
2022-07-26T12:18:31.229Z,70469.02
2022-07-26T12:21:09.646Z,70455.03
2022-07-26T12:23:49.087Z,70454.63
2022-07-26T12:26:28.859Z,70482.59
2022-07-26T12:29:20.067Z,70531.31
2022-07-26T12:32:12.743Z,70530.52
2022-07-26T12:34:57.236Z,70520.13
2022-07-26T12:37:39.487Z,70504.95
2022-07-26T12:40:16.958Z,70512.14
2022-07-26T12:42:58.644Z,70510.95
2022-07-26T12:45:36.974Z,70494.58
2022-07-26T12:48:13.664Z,70483.39
2022-07-26T12:50:46.326Z,70571.66
2022-07-26T12:53:22.433Z,70671.12
2022-07-26T12:55:54.205Z,70672.71
2022-07-26T12:58:24.310Z,70639.96
2022-07-26T13:00:57.949Z,70618.39
2022-07-26T13:03:30.160Z,70569.27
2022-07-26T13:06:04.340Z,70532.52
2022-07-26T13:08:34.940Z,70509.75
2022-07-26T13:11:06.195Z,70482.19
2022-07-26T13:13:36.364Z,70460.63
2022-07-26T13:16:12.023Z,70443.45
2022-07-26T13:18:44.245Z,70437.85
2022-07-26T13:21:17.384Z,70422.27
2022-07-26T13:23:47.367Z,70413.89
2022-07-26T13:26:19.104Z,70406.70
2022-07-26T13:28:53.771Z,70405.50
2022-07-26T13:31:26.643Z,70414.69
2022-07-26T13:33:57.061Z,70433.06
2022-07-26T13:36:27.867Z,70446.23
2022-07-26T13:38:59.916Z,70423.48
2022-07-26T13:41:31.160Z,70408.70
2022-07-26T13:44:02.567Z,70424.67
2022-07-26T13:46:33.963Z,70444.25
2022-07-26T13:49:06.105Z,70429.47
2022-07-26T13:51:57.806Z,70431.46
2022-07-26T13:54:32.946Z,70444.64
2022-07-26T13:57:06.024Z,70446.24
2022-07-26T13:59:36.899Z,70476.20
2022-07-26T14:02:08.639Z,70484.59
2022-07-26T14:04:38.323Z,70465.02
2022-07-26T14:07:07.949Z,70451.04
2022-07-26T14:09:38.125Z,70439.85
2022-07-26T14:12:08.596Z,70432.27
2022-07-26T14:14:39.636Z,70432.66
2022-07-26T14:17:11.225Z,70446.64
2022-07-26T14:19:41.451Z,70446.23
2022-07-26T14:22:14.565Z,70443.45
2022-07-26T14:24:46.252Z,70459.02
2022-07-26T14:27:17.286Z,70452.23
2022-07-26T14:29:48.309Z,70452.23
2022-07-26T14:32:22.149Z,70453.84
2022-07-26T14:34:53.925Z,70488.59
2022-07-26T14:37:42.484Z,70526.13
2022-07-26T14:40:18.031Z,70512.55
2022-07-26T14:42:50.395Z,70503.36
2022-07-26T14:45:23.912Z,70512.55
2022-07-26T14:47:57.625Z,70515.34
2022-07-26T14:50:35.027Z,70514.15
2022-07-26T14:53:19.880Z,70518.94
2022-07-26T14:55:54.803Z,70515.34
2022-07-26T14:58:26.301Z,70512.55
2022-07-26T15:00:58.615Z,70522.52
2022-07-26T15:03:31.743Z,70512.15
2022-07-26T15:06:02.218Z,70508.55
2022-07-26T15:08:32.448Z,70509.74
2022-07-26T15:11:06.414Z,70512.95
2022-07-26T15:13:39.292Z,70523.33
2022-07-26T15:16:12.604Z,70524.52
2022-07-26T15:18:45.499Z,70516.14
2022-07-26T15:21:16.840Z,70519.73
2022-07-26T15:23:51.182Z,70527.33
2022-07-26T15:26:26.327Z,70549.69
2022-07-26T15:28:58.180Z,70575.26
2022-07-26T15:31:37.209Z,70572.86
2022-07-26T15:34:09.871Z,70566.86
2022-07-26T15:36:40.354Z,70572.46
2022-07-26T15:39:18.696Z,70577.25
2022-07-26T15:41:50.053Z,70571.66
2022-07-26T15:44:25.751Z,70569.27
2022-07-26T15:46:57.445Z,70585.23
2022-07-26T15:49:28.092Z,70606.41
2022-07-26T15:51:58.546Z,70642.77
2022-07-26T15:54:29.315Z,70661.13
2022-07-26T15:57:00.270Z,70677.11
2022-07-26T15:59:30.405Z,70702.27
2022-07-26T16:02:00.369Z,70707.46
2022-07-26T16:04:30.431Z,70699.48
2022-07-26T16:07:03.328Z,70708.66
2022-07-26T16:09:33.499Z,70715.45
2022-07-26T16:12:06.275Z,70730.23
2022-07-26T16:14:36.547Z,70745.41
2022-07-26T16:17:08.553Z,70747.02
2022-07-26T16:19:39.513Z,70747.81
2022-07-26T16:22:11.495Z,70749.41
2022-07-26T16:24:42.733Z,70753.80
2022-07-26T16:27:14.688Z,70752.60
2022-07-26T16:29:50.268Z,70760.59
2022-07-26T16:32:22.583Z,70776.56
2022-07-26T16:34:52.185Z,70800.54
2022-07-26T16:37:22.483Z,70832.10
2022-07-26T16:39:54.283Z,70855.66
2022-07-26T16:42:24.867Z,70876.44
2022-07-26T16:44:56.505Z,70889.22
2022-07-26T16:47:28.016Z,70899.60
2022-07-26T16:49:59.468Z,70917.98
2022-07-26T16:52:30.342Z,70929.95
2022-07-26T16:55:00.669Z,70947.14
2022-07-26T16:57:33.756Z,70961.52
2022-07-26T17:00:07.917Z,70970.70
2022-07-26T17:02:39.261Z,70981.09
2022-07-26T17:05:09.734Z,70997.47
2022-07-26T17:07:42.179Z,71016.24
2022-07-26T17:10:13.571Z,71039.41
2022-07-26T17:12:43.262Z,71057.00
2022-07-26T17:15:14.534Z,71076.17
2022-07-26T17:17:48.717Z,71093.74
2022-07-26T17:20:21.466Z,71113.31
2022-07-26T17:22:51.462Z,71126.10
2022-07-26T17:25:21.785Z,71139.28
2022-07-26T17:27:53.895Z,71157.66
2022-07-26T17:30:24.215Z,71170.05
2022-07-26T17:32:55.209Z,71189.62
2022-07-26T17:35:26.498Z,71206.40
2022-07-26T17:37:56.823Z,71224.77
2022-07-26T17:40:30.004Z,71243.95
2022-07-26T17:43:00.684Z,71274.31
2022-07-26T17:45:30.846Z,71299.48
2022-07-26T17:48:06.059Z,71323.45
2022-07-26T17:50:39.261Z,71356.61
2022-07-26T17:53:12.819Z,71387.37
2022-07-26T17:55:44.381Z,71416.54
2022-07-26T17:58:15.738Z,71445.70
2022-07-26T18:00:48.848Z,71476.06
2022-07-26T18:03:20.909Z,71504.83
2022-07-26T18:05:53.390Z,71540.38
2022-07-26T18:08:32.301Z,71584.34
2022-07-26T18:11:27.756Z,71620.29
2022-07-26T18:13:58.455Z,71665.44
2022-07-26T18:16:30.648Z,71703.39
2022-07-26T18:19:02.270Z,71737.75
2022-07-26T18:21:34.354Z,71774.52
2022-07-26T18:24:16.957Z,71802.48
2022-07-26T18:26:49.226Z,71830.45
2022-07-26T18:29:20.697Z,71859.62
2022-07-26T18:31:52.241Z,71909.16
2022-07-26T18:34:23.561Z,71947.12
2022-07-26T18:36:55.532Z,71991.86
2022-07-26T18:39:30.515Z,72027.43
2022-07-26T18:42:04.355Z,72057.80
2022-07-26T18:44:38.620Z,72092.56
2022-07-26T18:47:10.400Z,72118.94
2022-07-26T18:49:40.200Z,72132.92
2022-07-26T18:52:10.483Z,72144.91
2022-07-26T18:54:41.708Z,72169.68
2022-07-26T18:57:12.467Z,72183.66
2022-07-26T18:59:44.756Z,72212.44
2022-07-26T19:02:17.331Z,72226.02
2022-07-26T19:04:49.510Z,72216.84
2022-07-26T19:07:21.606Z,72224.43
2022-07-26T19:09:57.873Z,72244.80
2022-07-26T19:12:31.371Z,72261.19
2022-07-26T19:15:06.800Z,72272.77
2022-07-26T19:17:38.797Z,72271.58
2022-07-26T19:20:11.634Z,72268.79
2022-07-26T19:22:44.921Z,72290.77
2022-07-26T19:25:17.373Z,72310.74
2022-07-26T19:27:48.426Z,72327.13
2022-07-26T19:30:18.884Z,72318.73
2022-07-26T19:32:51.579Z,72310.34
2022-07-26T19:35:23.848Z,72288.36
2022-07-26T19:37:54.227Z,72300.35
2022-07-26T19:40:24.751Z,72315.13
2022-07-26T19:42:56.588Z,72323.92
2022-07-26T19:45:27.328Z,72355.49
2022-07-26T19:47:59.855Z,72383.47
2022-07-26T19:50:36.254Z,72395.06
2022-07-26T19:53:09.004Z,72410.64
2022-07-26T19:55:46.530Z,72425.02
2022-07-26T19:58:17.498Z,72443.41
2022-07-26T20:00:48.079Z,72451.80
2022-07-26T20:03:17.977Z,72457.80
2022-07-26T20:05:49.680Z,72462.19
2022-07-26T20:08:20.708Z,72469.79
2022-07-26T20:10:52.860Z,72452.61
2022-07-26T20:13:23.530Z,72395.85
2022-07-26T20:15:55.476Z,72364.69
2022-07-26T20:18:28.965Z,72353.89
2022-07-26T20:20:59.554Z,72349.10
2022-07-26T20:23:29.466Z,72346.70
2022-07-26T20:26:02.577Z,72334.71
2022-07-26T20:28:33.993Z,72318.33
2022-07-26T20:31:05.982Z,72314.73
2022-07-26T20:33:36.525Z,72314.34
2022-07-26T20:36:07.494Z,72313.54
2022-07-26T20:38:37.428Z,72304.34
2022-07-26T20:41:11.480Z,72298.76
2022-07-26T20:43:48.997Z,72290.36
2022-07-26T20:46:19.860Z,72285.16
2022-07-26T20:48:51.688Z,72281.98
2022-07-26T20:51:22.314Z,72277.17
2022-07-26T20:53:52.516Z,72277.17
2022-07-26T20:56:23.278Z,72276.38
2022-07-26T20:58:53.391Z,72276.77
2022-07-26T21:01:23.565Z,72277.17
2022-07-26T21:03:55.407Z,72285.57
2022-07-26T21:06:25.937Z,72283.57
2022-07-26T21:09:01.069Z,72286.36
2022-07-26T21:11:39.923Z,72284.77
2022-07-26T21:14:10.395Z,72283.97
2022-07-26T21:16:40.396Z,72290.36
2022-07-26T21:19:11.074Z,72295.16
2022-07-26T21:21:42.467Z,72299.16
2022-07-26T21:24:13.674Z,72307.54
2022-07-26T21:26:46.256Z,72311.14
2022-07-26T21:29:16.140Z,72315.14
2022-07-26T21:31:46.505Z,72325.13
2022-07-26T21:34:17.107Z,72329.92
2022-07-26T21:36:47.941Z,72331.52
